Time;durP1;ratioP1;P1;durP2;ratioP2;P2;SDS_P1;SDS_P2;PMS_P1;PMS_P2;Temp;Humidity;BMP_temperature;BMP_pressure;BME280_temperature;BME280_humidity;BME280_pressure;Samples;Min_cycle;Max_cycle;Signal;HPM_P1;HPM_P2
2022/07/14 00:03:38;;;;;;;6.40;3.58;;;;;;;;;;8470861;28;20040;-83
2022/07/14 00:07:41;;;;;;;5.22;3.55;;;;;;;;;;8473374;28;20115;-84
2022/07/14 00:11:47;;;;;;;6.97;3.65;;;;;;;;;;8472959;28;20035;-86
2022/07/14 00:15:49;;;;;;;6.28;3.78;;;;;;;;;;8466832;28;20119;-86
2022/07/14 00:19:54;;;;;;;6.32;3.55;;;;;;;;;;8467369;28;20043;-87
2022/07/14 00:23:57;;;;;;;5.68;3.90;;;;;;;;;;8468158;28;20063;-85
2022/07/14 00:28:00;;;;;;;5.00;3.72;;;;;;;;;;8474144;28;20044;-85
2022/07/14 00:32:02;;;;;;;5.50;3.45;;;;;;;;;;8473910;28;20039;-85
2022/07/14 00:36:07;;;;;;;5.85;4.03;;;;;;;;;;8471397;28;20039;-86
2022/07/14 00:40:11;;;;;;;6.82;4.20;;;;;;;;;;8474411;28;20051;-85
2022/07/14 00:44:14;;;;;;;6.32;4.07;;;;;;;;;;8466944;28;20062;-87
2022/07/14 00:48:19;;;;;;;8.40;3.90;;;;;;;;;;8466106;28;20039;-88
2022/07/14 00:52:25;;;;;;;5.90;4.03;;;;;;;;;;8470073;28;20380;-89
2022/07/14 00:56:28;;;;;;;9.70;4.03;;;;;;;;;;8462533;28;20104;-86
2022/07/14 01:00:31;;;;;;;6.03;3.90;;;;;;;;;;8467250;28;20046;-86
2022/07/14 01:04:33;;;;;;;7.70;4.35;;;;;;;;;;8466113;28;20036;-90
2022/07/14 01:08:39;;;;;;;7.80;4.40;;;;;;;;;;8463232;28;20466;-86
2022/07/14 01:12:45;;;;;;;7.45;4.30;;;;;;;;;;8465313;28;20066;-86
2022/07/14 01:16:48;;;;;;;7.30;4.72;;;;;;;;;;8465804;28;20071;-86
2022/07/14 01:20:50;;;;;;;7.97;4.43;;;;;;;;;;8462297;28;20050;-87
2022/07/14 01:24:54;;;;;;;6.35;4.35;;;;;;;;;;8455070;28;20058;-86
2022/07/14 01:28:57;;;;;;;7.35;4.20;;;;;;;;;;8463049;28;20060;-86
2022/07/14 01:32:59;;;;;;;7.72;5.05;;;;;;;;;;8467051;28;20043;-87
2022/07/14 01:37:05;;;;;;;6.85;4.65;;;;;;;;;;8466711;28;20436;-85
2022/07/14 01:41:10;;;;;;;7.15;4.40;;;;;;;;;;8466840;28;20040;-85
2022/07/14 01:45:13;;;;;;;8.75;5.38;;;;;;;;;;8466948;28;20415;-86
2022/07/14 01:49:16;;;;;;;8.68;4.80;;;;;;;;;;8467336;28;20050;-85
2022/07/14 01:53:18;;;;;;;8.80;4.55;;;;;;;;;;8466769;28;20054;-86
2022/07/14 01:57:23;;;;;;;8.45;4.90;;;;;;;;;;8465627;28;20039;-90
2022/07/14 02:01:40;;;;;;;7.45;4.75;;;;;;;;;;8466196;28;20047;-86
2022/07/14 02:05:46;;;;;;;7.43;4.68;;;;;;;;;;8465724;28;20039;-86
2022/07/14 02:14:11;;;;;;;7.85;4.80;;;;;;;;;;8464427;28;20122;-86
2022/07/14 02:18:14;;;;;;;10.05;5.35;;;;;;;;;;8459192;28;20047;-86
2022/07/14 02:22:17;;;;;;;9.00;5.43;;;;;;;;;;8465725;28;20054;-86
2022/07/14 02:26:22;;;;;;;8.63;4.95;;;;;;;;;;8465575;28;20083;-87
2022/07/14 02:30:31;;;;;;;7.97;5.30;;;;;;;;;;8447442;28;20044;-86
2022/07/14 02:34:37;;;;;;;8.10;5.35;;;;;;;;;;8442796;28;20051;-87
2022/07/14 02:38:42;;;;;;;10.25;5.72;;;;;;;;;;8447586;28;20054;-86
2022/07/14 02:42:47;;;;;;;7.07;5.15;;;;;;;;;;8447839;28;20047;-89
2022/07/14 02:46:54;;;;;;;9.52;5.68;;;;;;;;;;8446977;28;20065;-89
2022/07/14 02:51:03;;;;;;;7.50;5.13;;;;;;;;;;8447216;28;20047;-86
2022/07/14 02:55:10;;;;;;;8.98;5.35;;;;;;;;;;8443499;28;20051;-86
2022/07/14 02:59:14;;;;;;;8.77;5.07;;;;;;;;;;8441130;28;20051;-86
2022/07/14 03:03:24;;;;;;;10.15;5.32;;;;;;;;;;8440179;28;20060;-89
2022/07/14 03:07:29;;;;;;;8.05;5.15;;;;;;;;;;8446392;28;20054;-87
2022/07/14 03:11:35;;;;;;;13.52;5.70;;;;;;;;;;8458864;28;20046;-88
2022/07/14 03:15:38;;;;;;;9.77;5.90;;;;;;;;;;8457442;28;20040;-86
2022/07/14 03:19:48;;;;;;;9.43;5.45;;;;;;;;;;8439433;28;20051;-86
2022/07/14 03:23:53;;;;;;;8.52;5.72;;;;;;;;;;8441738;28;20446;-86
2022/07/14 03:32:01;;;;;;;10.27;4.93;;;;;;;;;;8411858;28;20152;-85
2022/07/14 03:36:06;;;;;;;8.80;5.25;;;;;;;;;;8409063;28;20123;-86
2022/07/14 03:40:10;;;;;;;7.93;5.10;;;;;;;;;;8412278;28;20055;-86
2022/07/14 03:44:13;;;;;;;11.07;5.28;;;;;;;;;;8416383;28;20047;-85
2022/07/14 03:48:16;;;;;;;6.75;4.78;;;;;;;;;;8407861;28;20041;-86
2022/07/14 03:52:21;;;;;;;8.30;4.45;;;;;;;;;;8401186;28;20056;-85
2022/07/14 03:56:23;;;;;;;7.97;4.90;;;;;;;;;;8411161;28;20447;-86
2022/07/14 04:00:26;;;;;;;11.18;5.00;;;;;;;;;;8410787;28;20056;-86
2022/07/14 04:04:29;;;;;;;7.78;4.65;;;;;;;;;;8419793;28;20502;-85
2022/07/14 04:08:34;;;;;;;9.73;5.07;;;;;;;;;;8413566;28;20043;-85
2022/07/14 04:12:38;;;;;;;9.02;5.03;;;;;;;;;;8401273;28;20496;-85
2022/07/14 04:16:41;;;;;;;7.40;4.85;;;;;;;;;;8395440;28;20051;-85
2022/07/14 04:20:54;;;;;;;7.78;4.53;;;;;;;;;;8424477;28;20045;-86
2022/07/14 04:25:05;;;;;;;9.65;5.00;;;;;;;;;;8405499;28;20044;-86
2022/07/14 04:29:08;;;;;;;10.55;5.22;;;;;;;;;;8420062;28;20085;-86
2022/07/14 04:33:12;;;;;;;5.65;3.97;;;;;;;;;;8456370;28;20051;-87
2022/07/14 04:37:16;;;;;;;5.88;4.10;;;;;;;;;;8448597;28;20052;-86
2022/07/14 04:41:20;;;;;;;7.13;4.40;;;;;;;;;;8439891;28;20273;-86
2022/07/14 04:45:23;;;;;;;7.68;4.18;;;;;;;;;;8435234;28;20429;-86
2022/07/14 04:53:46;;;;;;;7.97;4.10;;;;;;;;;;8447670;28;20039;-89
2022/07/14 04:57:51;;;;;;;6.32;4.15;;;;;;;;;;8454417;28;20530;-89
2022/07/14 05:01:54;;;;;;;5.80;3.83;;;;;;;;;;8426458;28;20055;-87
2022/07/14 05:06:01;;;;;;;9.23;5.85;;;;;;;;;;8429465;28;20044;-89
2022/07/14 05:10:08;;;;;;;6.00;3.85;;;;;;;;;;8403138;28;20137;-90
2022/07/14 05:14:17;;;;;;;6.22;3.72;;;;;;;;;;8411440;28;20052;-90
2022/07/14 05:18:21;;;;;;;15.30;4.72;;;;;;;;;;8394930;28;20044;-90
2022/07/14 05:22:27;;;;;;;7.75;4.20;;;;;;;;;;8401716;28;20068;-90
2022/07/14 05:26:33;;;;;;;7.15;4.30;;;;;;;;;;8392814;28;20454;-89
2022/07/14 05:30:43;;;;;;;8.07;4.28;;;;;;;;;;8424324;28;20059;-89
2022/07/14 05:34:49;;;;;;;5.90;4.13;;;;;;;;;;8427491;28;20101;-89
2022/07/14 05:38:56;;;;;;;6.78;4.07;;;;;;;;;;8429018;28;20415;-88
2022/07/14 05:43:04;;;;;;;7.63;4.00;;;;;;;;;;8433108;28;20633;-89
2022/07/14 05:47:10;;;;;;;5.35;3.53;;;;;;;;;;8441843;28;20052;-89
2022/07/14 05:51:20;;;;;;;6.82;3.50;;;;;;;;;;8440578;28;20058;-90
2022/07/14 05:55:27;;;;;;;7.25;3.50;;;;;;;;;;8438932;28;20547;-91
2022/07/14 05:59:33;;;;;;;5.97;3.55;;;;;;;;;;8424960;28;20411;-90
2022/07/14 06:03:43;;;;;;;9.52;4.28;;;;;;;;;;8436386;28;20047;-90
2022/07/14 06:07:46;;;;;;;11.45;5.07;;;;;;;;;;8441690;28;20040;-90
2022/07/14 06:11:53;;;;;;;18.05;4.90;;;;;;;;;;8423719;28;20048;-88
2022/07/14 06:15:59;;;;;;;14.80;9.43;;;;;;;;;;8439008;28;20073;-88
2022/07/14 06:20:09;;;;;;;7.60;4.00;;;;;;;;;;8424932;28;20420;-89
2022/07/14 06:24:13;;;;;;;6.95;3.80;;;;;;;;;;8431376;28;20442;-90
2022/07/14 06:28:17;;;;;;;12.55;3.60;;;;;;;;;;8439306;28;20047;-90
2022/07/14 06:32:27;;;;;;;4.90;3.10;;;;;;;;;;8426750;28;20471;-91
2022/07/14 06:36:37;;;;;;;6.05;3.08;;;;;;;;;;8424043;28;20419;-91
2022/07/14 06:40:42;;;;;;;5.72;2.72;;;;;;;;;;8421505;28;20112;-90
2022/07/14 06:44:49;;;;;;;6.60;3.22;;;;;;;;;;8436076;28;20054;-92
2022/07/14 06:48:54;;;;;;;5.35;2.65;;;;;;;;;;8438824;28;20043;-90
2022/07/14 06:53:02;;;;;;;9.43;3.05;;;;;;;;;;8425624;28;20051;-90
2022/07/14 06:57:06;;;;;;;8.23;3.20;;;;;;;;;;8414084;28;20049;-90
2022/07/14 07:01:12;;;;;;;8.50;3.25;;;;;;;;;;8437227;28;20044;-91
2022/07/14 07:09:41;;;;;;;4.25;2.53;;;;;;;;;;8442986;28;20051;-91
2022/07/14 07:13:49;;;;;;;4.00;2.67;;;;;;;;;;8438965;28;20052;-91
2022/07/14 07:17:53;;;;;;;4.97;2.90;;;;;;;;;;8442213;28;20109;-90
2022/07/14 07:21:57;;;;;;;4.22;2.80;;;;;;;;;;8444479;28;20054;-91
2022/07/14 07:26:04;;;;;;;4.25;2.67;;;;;;;;;;8428796;28;20427;-90
2022/07/14 07:30:13;;;;;;;5.45;2.90;;;;;;;;;;8430011;28;20063;-89
2022/07/14 07:34:19;;;;;;;3.75;2.78;;;;;;;;;;8407020;28;20056;-90
2022/07/14 07:38:24;;;;;;;4.75;3.00;;;;;;;;;;8406503;28;20106;-89
2022/07/14 07:42:40;;;;;;;4.00;2.45;;;;;;;;;;8407520;28;20048;-89
2022/07/14 07:46:44;;;;;;;4.07;3.03;;;;;;;;;;8407501;28;20090;-89
2022/07/14 07:50:49;;;;;;;9.50;3.35;;;;;;;;;;8406956;28;20134;-93
2022/07/14 07:54:52;;;;;;;5.88;3.17;;;;;;;;;;8403811;28;20163;-90
2022/07/14 07:59:01;;;;;;;7.07;3.00;;;;;;;;;;8406314;28;20075;-89
2022/07/14 08:03:08;;;;;;;3.95;2.67;;;;;;;;;;8403996;28;20139;-89
2022/07/14 08:07:18;;;;;;;4.65;2.83;;;;;;;;;;8411271;28;20458;-90
2022/07/14 08:11:27;;;;;;;8.02;3.90;;;;;;;;;;8429885;28;20055;-89
2022/07/14 08:15:42;;;;;;;6.90;2.92;;;;;;;;;;8413086;28;20063;-89
2022/07/14 08:19:49;;;;;;;5.23;3.03;;;;;;;;;;8412772;28;20044;-90
2022/07/14 08:23:56;;;;;;;6.93;3.70;;;;;;;;;;8412966;28;20334;-90
2022/07/14 08:28:03;;;;;;;3.15;2.85;;;;;;;;;;8412078;28;20048;-87
2022/07/14 08:32:10;;;;;;;6.20;3.08;;;;;;;;;;8412236;28;20048;-85
2022/07/14 08:36:16;;;;;;;8.05;2.97;;;;;;;;;;8412798;28;20056;-88
2022/07/14 08:40:22;;;;;;;4.47;2.67;;;;;;;;;;8411720;28;20063;-88
2022/07/14 08:44:35;;;;;;;6.70;2.90;;;;;;;;;;8412115;28;20063;-88
2022/07/14 08:48:43;;;;;;;3.85;2.70;;;;;;;;;;8429794;28;20036;-88
2022/07/14 08:52:48;;;;;;;9.05;2.83;;;;;;;;;;8409123;28;20048;-88
2022/07/14 08:56:53;;;;;;;4.63;2.53;;;;;;;;;;8425794;28;20051;-90
2022/07/14 09:01:02;;;;;;;4.40;2.35;;;;;;;;;;8405486;28;20052;-89
2022/07/14 09:05:11;;;;;;;5.70;2.55;;;;;;;;;;8411694;28;20556;-88
2022/07/14 09:09:18;;;;;;;6.22;2.45;;;;;;;;;;8406298;28;20719;-90
2022/07/14 09:13:25;;;;;;;10.82;2.80;;;;;;;;;;8411894;28;20456;-86
2022/07/14 09:17:31;;;;;;;9.07;3.05;;;;;;;;;;8427106;28;20412;-88
2022/07/14 09:21:41;;;;;;;4.95;2.65;;;;;;;;;;8410578;28;20553;-87
2022/07/14 09:25:45;;;;;;;;;;;;;;;;;;8411621;28;20052;-88
2022/07/14 09:29:59;;;;;;;5.07;3.05;;;;;;;;;;8410387;28;19931;-90
2022/07/14 09:34:06;;;;;;;9.57;3.10;;;;;;;;;;8409516;28;20173;-88
2022/07/14 09:38:22;;;;;;;4.78;2.72;;;;;;;;;;8410231;28;20139;-89
2022/07/14 09:42:50;;;;;;;5.10;2.88;;;;;;;;;;8410293;28;20091;-87
2022/07/14 09:46:56;;;;;;;4.22;2.45;;;;;;;;;;8423036;28;20051;-87
2022/07/14 09:51:01;;;;;;;6.15;3.10;;;;;;;;;;8403561;28;20094;-89
2022/07/14 09:55:10;;;;;;;5.40;2.33;;;;;;;;;;8409741;28;20522;-88
2022/07/14 09:59:19;;;;;;;7.65;3.00;;;;;;;;;;8420405;28;20135;-89
2022/07/14 10:03:27;;;;;;;5.13;2.40;;;;;;;;;;8421030;28;20139;-88
2022/07/14 10:07:35;;;;;;;6.38;3.13;;;;;;;;;;8426709;28;20043;-92
2022/07/14 10:11:44;;;;;;;8.27;3.10;;;;;;;;;;8421188;28;20051;-86
2022/07/14 10:15:51;;;;;;;9.50;3.55;;;;;;;;;;8426203;28;20479;-89
2022/07/14 10:19:57;;;;;;;9.77;3.10;;;;;;;;;;8422840;28;20510;-86
2022/07/14 10:24:01;;;;;;;4.18;2.40;;;;;;;;;;8426141;28;20108;-90
2022/07/14 10:28:13;;;;;;;4.03;2.00;;;;;;;;;;8420126;28;20036;-86
2022/07/14 10:32:24;;;;;;;;;;;;;;;;;;8400038;28;20488;-87
2022/07/14 10:36:34;;;;;;;6.55;2.50;;;;;;;;;;8407533;28;20362;-88
2022/07/14 10:40:49;;;;;;;43.28;6.43;;;;;;;;;;8420418;28;20399;-86
2022/07/14 10:44:55;;;;;;;8.80;2.70;;;;;;;;;;8407811;28;20060;-85
2022/07/14 10:48:59;;;;;;;6.22;2.70;;;;;;;;;;8422110;28;20052;-86
2022/07/14 10:53:05;;;;;;;5.35;2.78;;;;;;;;;;8422462;28;20052;-85
2022/07/14 10:57:14;;;;;;;5.35;2.50;;;;;;;;;;8425452;28;20052;-84
2022/07/14 11:01:20;;;;;;;4.68;2.20;;;;;;;;;;8415504;28;20048;-86
2022/07/14 11:05:25;;;;;;;7.47;2.13;;;;;;;;;;8408684;28;20097;-84
2022/07/14 11:09:32;;;;;;;3.00;2.20;;;;;;;;;;8405282;28;20093;-84
2022/07/14 11:13:57;;;;;;;3.38;2.00;;;;;;;;;;8397431;28;20064;-85
2022/07/14 11:18:27;;;;;;;5.65;2.28;;;;;;;;;;8422041;28;20047;-85
2022/07/14 11:22:31;;;;;;;11.10;2.97;;;;;;;;;;8422110;28;20497;-85
2022/07/14 11:26:40;;;;;;;5.25;2.47;;;;;;;;;;8410050;28;20467;-85
2022/07/14 11:30:44;;;;;;;6.70;3.00;;;;;;;;;;8406109;28;20114;-85
2022/07/14 11:39:28;;;;;;;4.10;2.40;;;;;;;;;;8409764;28;20151;-84
2022/07/14 11:43:46;;;;;;;3.80;2.40;;;;;;;;;;8419406;28;20048;-84
2022/07/14 11:47:51;;;;;;;4.57;2.53;;;;;;;;;;8417094;28;20067;-87
2022/07/14 11:51:57;;;;;;;6.50;2.70;;;;;;;;;;8425829;28;20059;-84
2022/07/14 11:56:01;;;;;;;7.85;2.72;;;;;;;;;;8398662;28;20496;-84
2022/07/14 12:00:08;;;;;;;4.70;2.78;;;;;;;;;;8403430;28;20071;-84
2022/07/14 12:04:15;;;;;;;5.25;2.97;;;;;;;;;;8421156;28;20044;-85
2022/07/14 12:08:27;;;;;;;6.15;2.55;;;;;;;;;;8420784;28;20089;-85
2022/07/14 12:12:42;;;;;;;3.78;2.40;;;;;;;;;;8418814;28;20048;-85
2022/07/14 12:16:48;;;;;;;2.60;2.33;;;;;;;;;;8422941;28;20055;-84
2022/07/14 12:25:38;;;;;;;4.70;2.25;;;;;;;;;;8417579;28;20484;-83
2022/07/14 12:29:51;;;;;;;4.82;2.35;;;;;;;;;;8434183;28;20048;-84
2022/07/14 12:34:00;;;;;;;6.78;2.63;;;;;;;;;;8437555;28;20562;-86
2022/07/14 12:38:05;;;;;;;3.53;2.40;;;;;;;;;;8443669;28;20121;-83
2022/07/14 12:42:14;;;;;;;4.47;2.17;;;;;;;;;;8447772;28;20075;-83
2022/07/14 12:46:23;;;;;;;9.98;3.75;;;;;;;;;;8441753;28;20055;-83
2022/07/14 12:50:30;;;;;;;9.05;3.80;;;;;;;;;;8442753;28;20044;-84
2022/07/14 12:54:45;;;;;;;5.75;2.65;;;;;;;;;;8444601;28;20124;-83
2022/07/14 12:59:04;;;;;;;7.15;2.65;;;;;;;;;;8436592;28;20483;-85
2022/07/14 13:03:15;;;;;;;4.68;2.92;;;;;;;;;;8449872;28;20470;-83
2022/07/14 13:07:24;;;;;;;5.90;2.90;;;;;;;;;;8448432;28;20522;-83
2022/07/14 13:11:32;;;;;;;5.15;2.88;;;;;;;;;;8435093;28;20052;-84
2022/07/14 13:15:42;;;;;;;4.82;2.80;;;;;;;;;;8456850;28;20047;-83
2022/07/14 13:19:51;;;;;;;4.35;2.45;;;;;;;;;;8438931;28;20108;-84
2022/07/14 13:23:57;;;;;;;4.05;2.80;;;;;;;;;;8447083;28;20131;-84
2022/07/14 13:28:04;;;;;;;3.28;2.55;;;;;;;;;;8443596;28;20052;-84
2022/07/14 13:32:13;;;;;;;6.00;3.03;;;;;;;;;;8446952;28;20054;-83
2022/07/14 13:36:17;;;;;;;7.28;3.20;;;;;;;;;;8443098;28;20048;-85
2022/07/14 13:40:22;;;;;;;5.25;3.30;;;;;;;;;;8444745;28;20043;-85
2022/07/14 13:44:28;;;;;;;4.75;3.20;;;;;;;;;;8447775;28;20134;-84
2022/07/14 13:48:38;;;;;;;6.53;3.30;;;;;;;;;;8447018;28;20044;-84
2022/07/14 13:52:44;;;;;;;10.50;4.00;;;;;;;;;;8440025;28;20112;-84
2022/07/14 13:56:54;;;;;;;9.45;4.35;;;;;;;;;;8443057;28;20474;-84
2022/07/14 14:00:58;;;;;;;7.35;4.28;;;;;;;;;;8446030;28;20147;-85
2022/07/14 14:05:07;;;;;;;5.82;3.58;;;;;;;;;;8455497;28;20433;-84
2022/07/14 14:09:11;;;;;;;8.05;3.10;;;;;;;;;;8454341;28;20047;-84
2022/07/14 14:13:16;;;;;;;5.32;3.00;;;;;;;;;;8442004;28;20052;-84
2022/07/14 14:17:20;;;;;;;4.75;3.30;;;;;;;;;;8450236;28;20437;-86
2022/07/14 14:21:38;;;;;;;5.28;3.00;;;;;;;;;;8447551;28;20125;-86
2022/07/14 14:25:47;;;;;;;9.02;3.47;;;;;;;;;;8445271;28;20530;-85
2022/07/14 14:29:52;;;;;;;7.47;3.30;;;;;;;;;;8439384;28;20530;-85
2022/07/14 14:33:56;;;;;;;5.10;3.60;;;;;;;;;;8416219;28;20836;-85
2022/07/14 14:38:02;;;;;;;11.55;3.80;;;;;;;;;;8426204;28;20404;-85
2022/07/14 14:42:06;;;;;;;5.47;3.63;;;;;;;;;;8425839;28;20543;-85
2022/07/14 14:46:11;;;;;;;4.97;3.20;;;;;;;;;;8426703;28;20048;-85
2022/07/14 14:50:15;;;;;;;7.82;3.45;;;;;;;;;;8426217;28;20044;-86
2022/07/14 14:54:20;;;;;;;5.30;3.95;;;;;;;;;;8422327;28;20070;-84
2022/07/14 14:58:24;;;;;;;5.07;3.55;;;;;;;;;;8425990;28;20139;-85
2022/07/14 15:02:30;;;;;;;5.47;3.42;;;;;;;;;;8425301;28;20044;-85
2022/07/14 15:06:34;;;;;;;5.93;4.10;;;;;;;;;;8425761;28;20044;-86
2022/07/14 15:10:40;;;;;;;5.75;4.05;;;;;;;;;;8425338;28;20497;-85
2022/07/14 15:14:45;;;;;;;5.45;3.65;;;;;;;;;;8419196;28;20046;-86
2022/07/14 15:18:49;;;;;;;7.10;3.83;;;;;;;;;;8424570;28;20044;-85
2022/07/14 15:22:53;;;;;;;5.70;3.70;;;;;;;;;;8424398;28;20097;-85
2022/07/14 15:27:04;;;;;;;5.10;3.47;;;;;;;;;;8418697;28;20432;-85
2022/07/14 15:31:17;;;;;;;4.22;3.25;;;;;;;;;;8411578;28;20064;-84
2022/07/14 15:35:24;;;;;;;4.38;3.30;;;;;;;;;;8420303;28;20040;-85
2022/07/14 15:43:59;;;;;;;5.13;3.10;;;;;;;;;;8418706;28;20048;-84
2022/07/14 15:48:07;;;;;;;4.93;3.28;;;;;;;;;;8407335;28;20062;-84
2022/07/14 15:52:20;;;;;;;9.07;3.90;;;;;;;;;;8418255;28;20068;-84
2022/07/14 15:56:24;;;;;;;5.65;3.20;;;;;;;;;;8418872;28;20099;-84
2022/07/14 16:00:32;;;;;;;7.13;4.00;;;;;;;;;;8422436;28;20051;-85
2022/07/14 16:04:39;;;;;;;6.75;3.83;;;;;;;;;;8415939;28;20055;-84
2022/07/14 16:08:44;;;;;;;5.72;3.60;;;;;;;;;;8439023;28;20057;-84
2022/07/14 16:12:47;;;;;;;4.90;3.28;;;;;;;;;;8419668;28;20048;-86
2022/07/14 16:16:54;;;;;;;6.63;3.53;;;;;;;;;;8441263;28;20102;-85
2022/07/14 16:21:00;;;;;;;5.15;3.30;;;;;;;;;;8406119;28;20139;-85
2022/07/14 16:25:05;;;;;;;9.90;4.15;;;;;;;;;;8424296;28;20048;-84
2022/07/14 16:29:10;;;;;;;9.30;4.40;;;;;;;;;;8427959;28;20055;-85
2022/07/14 16:33:16;;;;;;;10.93;4.70;;;;;;;;;;8423301;28;20044;-86
2022/07/14 16:37:20;;;;;;;6.60;3.85;;;;;;;;;;8412098;28;20043;-84
2022/07/14 16:41:24;;;;;;;7.20;4.18;;;;;;;;;;8416023;28;20560;-84
2022/07/14 16:45:28;;;;;;;11.18;4.70;;;;;;;;;;8418103;28;20047;-85
2022/07/14 16:49:34;;;;;;;7.25;3.78;;;;;;;;;;8406554;28;20058;-83
2022/07/14 16:53:37;;;;;;;10.38;4.00;;;;;;;;;;8419771;28;20048;-86
2022/07/14 16:57:42;;;;;;;6.25;3.22;;;;;;;;;;8418915;28;20147;-84
2022/07/14 17:01:45;;;;;;;5.72;3.55;;;;;;;;;;8389484;28;20060;-85
2022/07/14 17:10:11;;;;;;;8.43;4.00;;;;;;;;;;8418978;28;20456;-85
2022/07/14 17:14:16;;;;;;;5.38;3.60;;;;;;;;;;8403378;28;20094;-84
2022/07/14 17:18:20;;;;;;;6.95;3.15;;;;;;;;;;8390676;28;20060;-86
2022/07/14 17:22:39;;;;;;;4.93;3.40;;;;;;;;;;8426164;28;20059;-86
2022/07/14 17:26:47;;;;;;;7.30;3.58;;;;;;;;;;8411419;28;20146;-85
2022/07/14 17:30:52;;;;;;;6.28;3.40;;;;;;;;;;8410473;28;20056;-84
2022/07/14 17:34:56;;;;;;;6.57;3.97;;;;;;;;;;8412242;28;20140;-85
2022/07/14 17:39:04;;;;;;;8.23;4.80;;;;;;;;;;8415187;28;20058;-85
2022/07/14 17:43:10;;;;;;;9.77;4.93;;;;;;;;;;8419364;28;20057;-84
2022/07/14 17:47:14;;;;;;;7.80;5.03;;;;;;;;;;8413045;28;20048;-87
2022/07/14 17:55:40;;;;;;;10.37;4.10;;;;;;;;;;8403281;28;20087;-85
2022/07/14 17:59:44;;;;;;;9.43;4.05;;;;;;;;;;8395960;28;20306;-88
2022/07/14 18:03:51;;;;;;;8.25;4.53;;;;;;;;;;8409052;28;20059;-90
2022/07/14 18:07:56;;;;;;;7.55;4.40;;;;;;;;;;8393008;28;20040;-89
2022/07/14 18:12:08;;;;;;;7.75;5.38;;;;;;;;;;8415366;28;20052;-91
2022/07/14 18:16:12;;;;;;;9.45;5.20;;;;;;;;;;8378069;28;20045;-88
2022/07/14 18:20:20;;;;;;;8.88;5.47;;;;;;;;;;8385668;28;20262;-90
2022/07/14 18:24:25;;;;;;;9.45;5.80;;;;;;;;;;8508254;22;20018;-90
2022/07/14 18:28:33;;;;;;;9.45;5.47;;;;;;;;;;8321609;28;20049;-91
2022/07/14 18:32:37;;;;;;;9.20;6.22;;;;;;;;;;8320703;28;20053;-90
2022/07/14 20:33:46;;;;;;;13.50;9.10;;;;;;;;;;8180058;28;20412;-88
2022/07/14 20:38:06;;;;;;;12.82;8.35;;;;;;;;;;8162513;28;20043;-89
2022/07/14 20:42:18;;;;;;;12.82;8.77;;;;;;;;;;8350684;28;20048;-89
2022/07/14 20:50:54;;;;;;;19.50;9.65;;;;;;;;;;8367825;28;20072;-88
2022/07/14 20:55:17;;;;;;;12.40;8.52;;;;;;;;;;8371176;28;20056;-88
2022/07/14 20:59:23;;;;;;;12.05;8.73;;;;;;;;;;8376589;28;20059;-88
2022/07/14 21:03:28;;;;;;;17.13;10.85;;;;;;;;;;8395721;28;20041;-89
2022/07/14 21:07:35;;;;;;;18.20;11.15;;;;;;;;;;8369124;28;20072;-87
2022/07/14 21:11:40;;;;;;;15.35;10.50;;;;;;;;;;8360429;28;20405;-87
2022/07/14 21:15:47;;;;;;;11.35;7.57;;;;;;;;;;8364735;28;20057;-88
2022/07/14 21:19:57;;;;;;;11.85;7.82;;;;;;;;;;8365110;28;20041;-88
2022/07/14 22:00:42;;;;;;;9.25;5.80;;;;;;;;;;8308886;28;20088;-91
